Time;durP1;ratioP1;P1;durP2;ratioP2;P2;SDS_P1;SDS_P2;PMS_P1;PMS_P2;Temp;Humidity;BMP_temperature;BMP_pressure;BME280_temperature;BME280_humidity;BME280_pressure;Samples;Min_cycle;Max_cycle;Signal;HPM_P1;HPM_P2
2022/04/19 00:00:14;;;;;;;2.63;1.75;;;13.60;96.70;;;;;;5014609;28;20148;-83
2022/04/19 00:02:42;;;;;;;4.40;2.10;;;13.60;96.70;;;;;;5021096;28;20049;-82
2022/04/19 00:05:11;;;;;;;6.55;1.77;;;13.60;96.70;;;;;;5018952;28;20042;-82
2022/04/19 00:07:41;;;;;;;4.32;2.10;;;13.50;96.70;;;;;;5020597;28;20643;-81
2022/04/19 00:10:10;;;;;;;3.38;1.92;;;13.40;96.70;;;;;;5018542;28;20052;-81
2022/04/19 00:12:38;;;;;;;2.65;1.70;;;13.50;96.70;;;;;;5032100;28;20073;-81
2022/04/19 00:15:07;;;;;;;4.97;1.95;;;13.50;96.70;;;;;;4999655;28;20095;-81
2022/04/19 00:17:35;;;;;;;3.63;1.83;;;13.40;96.70;;;;;;5022671;28;20672;-82
2022/04/19 00:20:04;;;;;;;3.05;1.80;;;13.50;96.70;;;;;;5022341;28;20701;-81
2022/04/19 00:22:34;;;;;;;3.35;1.60;;;13.40;96.70;;;;;;5023177;28;20041;-82
2022/04/19 00:25:02;;;;;;;3.45;1.60;;;13.40;96.70;;;;;;5031339;28;20053;-82
2022/04/19 00:27:30;;;;;;;3.10;1.83;;;13.40;96.70;;;;;;5013759;28;20061;-83
2022/04/19 00:29:59;;;;;;;4.45;1.63;;;13.40;96.70;;;;;;5011516;28;20049;-81
2022/04/19 00:32:27;;;;;;;3.40;1.90;;;13.30;96.70;;;;;;4994842;28;20072;-82
2022/04/19 00:34:57;;;;;;;3.67;1.90;;;13.20;96.70;;;;;;5001438;28;20041;-81
2022/04/19 00:37:25;;;;;;;3.42;1.70;;;13.20;96.70;;;;;;5013983;28;20037;-81
2022/04/19 00:39:58;;;;;;;3.08;1.83;;;13.20;96.70;;;;;;5017208;28;20042;-81
2022/04/19 00:42:27;;;;;;;3.03;1.73;;;13.30;96.70;;;;;;5015673;28;20077;-82
2022/04/19 00:44:56;;;;;;;4.30;1.60;;;13.10;96.70;;;;;;5020153;28;20041;-83
2022/04/19 00:47:24;;;;;;;3.38;2.22;;;13.10;96.70;;;;;;5018838;28;20048;-82
2022/04/19 00:49:53;;;;;;;4.28;2.05;;;13.10;96.70;;;;;;5021987;28;20092;-82
2022/04/19 00:52:21;;;;;;;3.97;1.67;;;13.20;96.70;;;;;;5012899;28;20052;-82
2022/04/19 00:54:49;;;;;;;6.55;2.00;;;13.10;96.70;;;;;;5024603;28;20049;-82
2022/04/19 00:57:22;;;;;;;4.13;1.83;;;13.10;96.70;;;;;;5016119;28;20056;-82
2022/04/19 00:59:52;;;;;;;2.50;1.80;;;12.80;96.70;;;;;;4995802;28;20042;-81
2022/04/19 01:02:21;;;;;;;3.17;1.60;;;12.80;96.70;;;;;;5006947;28;20052;-82
2022/04/19 01:04:50;;;;;;;3.25;1.80;;;12.90;96.70;;;;;;4996830;28;20422;-82
2022/04/19 01:07:19;;;;;;;4.15;2.00;;;13.00;96.70;;;;;;4989349;28;20042;-82
2022/04/19 01:09:49;;;;;;;4.30;1.88;;;12.80;96.70;;;;;;5027066;28;20092;-82
2022/04/19 01:15:10;;;;;;;4.25;1.90;;;12.80;96.70;;;;;;5017612;28;20054;-81
2022/04/19 01:18:02;;;;;;;3.42;1.92;;;12.70;96.70;;;;;;5017281;28;20119;-81
2022/04/19 01:20:33;;;;;;;2.58;1.50;;;12.70;96.70;;;;;;5008036;28;20077;-81
2022/04/19 01:23:03;;;;;;;2.65;1.52;;;12.70;96.70;;;;;;5016851;28;20057;-81
2022/04/19 01:25:34;;;;;;;4.82;2.15;;;12.90;96.70;;;;;;5016501;28;20052;-81
2022/04/19 01:28:03;;;;;;;3.25;1.65;;;12.80;96.70;;;;;;5017977;28;20045;-82
2022/04/19 01:30:33;;;;;;;3.17;1.50;;;12.70;96.70;;;;;;5015843;28;20511;-82
2022/04/19 01:33:02;;;;;;;4.70;1.90;;;12.70;96.70;;;;;;5017158;28;20085;-81
2022/04/19 01:35:30;;;;;;;3.25;1.92;;;13.00;96.70;;;;;;5020976;28;20045;-81
2022/04/19 01:37:59;;;;;;;4.00;1.77;;;13.00;96.70;;;;;;4998018;28;20050;-81
2022/04/19 01:40:36;;;;;;;2.38;1.92;;;12.60;96.70;;;;;;5023142;28;20050;-81
2022/04/19 01:43:08;;;;;;;2.83;1.73;;;12.50;96.70;;;;;;5004743;28;20050;-81
2022/04/19 01:45:56;;;;;;;4.07;1.88;;;12.50;96.70;;;;;;5014516;28;20045;-81
2022/04/19 01:48:26;;;;;;;5.68;2.10;;;12.50;96.70;;;;;;5023538;28;20080;-81
2022/04/19 01:50:54;;;;;;;4.97;2.08;;;12.40;96.70;;;;;;5012280;28;20160;-81
2022/04/19 01:53:23;;;;;;;4.30;1.70;;;12.40;96.70;;;;;;5015645;28;20053;-81
2022/04/19 01:55:55;;;;;;;4.55;2.13;;;12.40;96.70;;;;;;5003124;28;20765;-80
2022/04/19 01:59:02;;;;;;;4.00;1.50;;;12.40;96.70;;;;;;4983592;28;20062;-81
2022/04/19 02:01:53;;;;;;;1.85;1.60;;;12.40;96.70;;;;;;4967904;28;20141;-81
2022/04/19 02:04:22;;;;;;;2.45;1.58;;;12.20;96.70;;;;;;4988483;28;20074;-81
2022/04/19 02:06:50;;;;;;;2.80;1.65;;;12.30;96.70;;;;;;5019654;28;20054;-82
2022/04/19 02:09:18;;;;;;;2.20;1.70;;;12.20;96.70;;;;;;5004422;28;20574;-81
2022/04/19 02:11:48;;;;;;;4.10;1.80;;;12.20;96.70;;;;;;5021359;28;20038;-81
2022/04/19 02:14:30;;;;;;;2.75;1.77;;;12.20;96.70;;;;;;5014488;28;20124;-82
2022/04/19 02:16:58;;;;;;;2.20;1.40;;;12.20;96.70;;;;;;5016881;28;20049;-81
2022/04/19 02:19:26;;;;;;;2.03;1.58;;;12.10;96.70;;;;;;4996376;28;20904;-81
2022/04/19 02:21:54;;;;;;;3.53;1.50;;;11.90;96.70;;;;;;5011128;28;20049;-81
2022/04/19 02:24:22;;;;;;;2.88;1.77;;;11.90;96.70;;;;;;5011153;28;20050;-81
2022/04/19 02:26:53;;;;;;;2.58;1.73;;;11.80;96.70;;;;;;5021054;28;20048;-81
2022/04/19 02:29:25;;;;;;;3.13;1.50;;;11.70;96.70;;;;;;5024115;28;20144;-82
2022/04/19 02:31:54;;;;;;;3.22;1.85;;;11.70;96.70;;;;;;5015519;28;20055;-82
2022/04/19 02:34:23;;;;;;;2.42;1.42;;;11.70;96.70;;;;;;5023709;28;20122;-82
2022/04/19 02:36:53;;;;;;;3.75;1.55;;;11.70;96.70;;;;;;5021336;28;20046;-82
2022/04/19 02:39:23;;;;;;;2.42;1.65;;;11.70;96.70;;;;;;5014809;28;20063;-82
2022/04/19 02:41:54;;;;;;;4.03;1.70;;;11.70;96.70;;;;;;5017123;28;20420;-81
2022/04/19 02:44:23;;;;;;;2.42;1.52;;;11.70;96.70;;;;;;5020357;28;20053;-81
2022/04/19 02:47:05;;;;;;;3.22;1.75;;;11.70;96.70;;;;;;4995786;28;20046;-82
2022/04/19 02:49:39;;;;;;;2.47;1.30;;;11.70;96.70;;;;;;5013106;28;20049;-81
2022/04/19 02:52:07;;;;;;;5.30;1.50;;;11.70;96.70;;;;;;5012154;28;20479;-82
2022/04/19 02:54:37;;;;;;;2.55;1.33;;;11.70;96.70;;;;;;5022332;28;20064;-81
2022/04/19 02:57:11;;;;;;;2.72;2.00;;;11.80;96.70;;;;;;5039874;28;20049;-81
2022/04/19 02:59:42;;;;;;;2.72;1.55;;;11.70;96.70;;;;;;5028604;28;20143;-82
2022/04/19 03:02:11;;;;;;;3.53;1.50;;;11.70;96.70;;;;;;5014567;28;20069;-81
2022/04/19 03:04:39;;;;;;;3.10;1.27;;;11.70;96.70;;;;;;5018340;28;20050;-81
2022/04/19 03:07:07;;;;;;;2.60;1.15;;;11.70;96.70;;;;;;5034577;28;20091;-81
2022/04/19 03:09:35;;;;;;;3.85;1.67;;;11.50;96.70;;;;;;5003472;28;20057;-81
2022/04/19 03:12:04;;;;;;;2.03;1.10;;;11.50;96.70;;;;;;5018217;28;20050;-81
2022/04/19 03:14:34;;;;;;;2.13;1.30;;;11.50;96.70;;;;;;5030505;28;20053;-81
2022/04/19 03:17:05;;;;;;;3.28;1.30;;;11.50;96.70;;;;;;5011555;28;20077;-81
2022/04/19 03:19:34;;;;;;;3.13;1.38;;;11.60;96.70;;;;;;5009610;28;20156;-81
2022/04/19 03:22:03;;;;;;;3.47;1.15;;;11.50;96.70;;;;;;5022721;28;20155;-81
2022/04/19 03:30:07;;;;;;;1.75;1.20;;;11.40;96.70;;;;;;5012177;28;20818;-82
2022/04/19 03:32:38;;;;;;;2.58;1.30;;;11.60;96.70;;;;;;5015720;28;20127;-81
2022/04/19 03:35:08;;;;;;;2.75;1.25;;;11.50;96.70;;;;;;4999280;28;20167;-81
2022/04/19 03:37:48;;;;;;;1.58;1.10;;;11.50;96.70;;;;;;5018624;28;20452;-79
2022/04/19 03:40:19;;;;;;;2.60;1.35;;;11.60;96.70;;;;;;5014325;28;20410;-79
2022/04/19 03:42:47;;;;;;;1.58;1.10;;;11.60;96.70;;;;;;5004126;28;20041;-79
2022/04/19 03:45:18;;;;;;;3.30;1.23;;;11.50;96.70;;;;;;5010735;28;20049;-79
2022/04/19 03:47:48;;;;;;;2.17;1.38;;;11.50;96.70;;;;;;5018072;28;20060;-79
2022/04/19 03:50:17;;;;;;;3.13;1.60;;;11.40;96.70;;;;;;5010950;28;20049;-80
2022/04/19 03:52:46;;;;;;;2.22;1.40;;;11.40;96.70;;;;;;5015142;28;20046;-80
2022/04/19 03:55:14;;;;;;;2.30;1.40;;;11.30;96.70;;;;;;5019096;28;20077;-81
2022/04/19 03:57:44;;;;;;;2.08;1.33;;;11.30;96.70;;;;;;5016621;28;20119;-79
2022/04/19 04:00:12;;;;;;;2.35;1.38;;;11.30;96.70;;;;;;5012588;28;20053;-80
2022/04/19 04:02:45;;;;;;;3.67;1.67;;;11.30;96.70;;;;;;5015721;28;20111;-80
2022/04/19 04:05:21;;;;;;;2.80;1.40;;;11.30;96.70;;;;;;5015091;28;20415;-80
2022/04/19 04:07:49;;;;;;;2.28;1.17;;;11.30;96.70;;;;;;5017037;28;20487;-79
2022/04/19 04:10:19;;;;;;;2.83;1.30;;;11.30;96.70;;;;;;4992048;28;20061;-80
2022/04/19 04:12:47;;;;;;;5.13;1.27;;;11.20;96.70;;;;;;5019153;28;20099;-80
2022/04/19 04:15:15;;;;;;;4.20;1.70;;;11.10;96.70;;;;;;5010244;28;20518;-80
2022/04/19 04:17:45;;;;;;;3.30;1.63;;;11.20;96.70;;;;;;5028457;28;20041;-80
2022/04/19 04:20:13;;;;;;;3.85;1.50;;;11.20;96.70;;;;;;5013267;28;20049;-80
2022/04/19 04:22:43;;;;;;;3.45;1.23;;;11.10;96.70;;;;;;4997742;28;20694;-80
2022/04/19 04:25:11;;;;;;;3.60;1.65;;;11.10;96.70;;;;;;5034676;28;20116;-81
2022/04/19 04:27:39;;;;;;;3.72;1.50;;;11.10;96.70;;;;;;4995420;28;20057;-79
2022/04/19 04:30:08;;;;;;;1.75;1.60;;;11.10;96.70;;;;;;5016837;28;20138;-80
2022/04/19 04:32:46;;;;;;;2.13;1.40;;;11.10;96.70;;;;;;5014064;28;20116;-80
2022/04/19 04:35:13;;;;;;;3.35;1.35;;;11.00;96.70;;;;;;4985416;28;20492;-80
2022/04/19 04:37:41;;;;;;;4.97;1.48;;;10.90;96.70;;;;;;5013018;28;20065;-80
2022/04/19 04:40:11;;;;;;;3.75;1.80;;;10.90;96.70;;;;;;5018031;28;20050;-79
2022/04/19 04:43:12;;;;;;;2.75;1.60;;;10.80;96.70;;;;;;4981386;28;20508;-81
2022/04/19 04:45:40;;;;;;;3.47;1.67;;;10.90;96.70;;;;;;4964941;28;20050;-80
2022/04/19 04:50:58;;;;;;;8.57;1.85;;;10.90;96.70;;;;;;4961971;28;20801;-80
2022/04/19 04:53:27;;;;;;;3.38;1.65;;;10.90;96.70;;;;;;4968221;28;20093;-79
2022/04/19 04:56:12;;;;;;;5.25;2.20;;;11.00;96.70;;;;;;4965096;28;20129;-80
2022/04/19 04:58:40;;;;;;;3.17;1.65;;;11.00;96.70;;;;;;4975729;28;20054;-80
2022/04/19 05:01:08;;;;;;;2.58;1.85;;;11.00;96.70;;;;;;4972546;28;20057;-81
2022/04/19 05:03:38;;;;;;;3.92;1.83;;;10.80;96.70;;;;;;4965908;28;20587;-81
2022/04/19 05:06:07;;;;;;;5.53;1.98;;;10.70;96.70;;;;;;4966872;28;20562;-80
2022/04/19 05:08:35;;;;;;;3.10;2.03;;;10.80;96.70;;;;;;4967746;28;20060;-80
2022/04/19 05:11:03;;;;;;;5.13;1.85;;;10.90;96.70;;;;;;4966239;28;20050;-79
2022/04/19 05:13:31;;;;;;;9.02;2.20;;;11.00;96.70;;;;;;4975235;28;20134;-80
2022/04/19 05:15:59;;;;;;;4.93;2.10;;;10.90;96.70;;;;;;4966160;28;20067;-79
2022/04/19 05:18:31;;;;;;;2.67;1.83;;;10.90;96.70;;;;;;4983235;28;20136;-80
2022/04/19 05:21:01;;;;;;;4.25;1.70;;;10.90;96.70;;;;;;5018632;28;20644;-81
2022/04/19 05:23:29;;;;;;;6.00;2.30;;;11.00;96.70;;;;;;5022840;28;20061;-81
2022/04/19 05:25:57;;;;;;;4.60;2.28;;;11.00;96.70;;;;;;4999352;28;20059;-80
2022/04/19 05:28:25;;;;;;;5.75;2.40;;;11.20;96.70;;;;;;5023522;28;20095;-80
2022/04/19 05:30:56;;;;;;;4.28;2.35;;;11.20;96.70;;;;;;5017607;28;20050;-79
2022/04/19 05:33:25;;;;;;;3.80;2.05;;;11.20;96.70;;;;;;5018164;28;20075;-80
2022/04/19 05:35:53;;;;;;;3.72;2.80;;;11.20;96.70;;;;;;5017098;28;20041;-80
2022/04/19 05:38:22;;;;;;;2.97;1.83;;;11.30;96.70;;;;;;5022191;28;20407;-80
2022/04/19 05:40:51;;;;;;;4.53;2.55;;;11.00;96.70;;;;;;5012904;28;20104;-81
2022/04/19 05:43:19;;;;;;;4.00;2.00;;;11.00;96.70;;;;;;5009790;28;20060;-80
2022/04/19 05:45:47;;;;;;;3.97;2.30;;;11.00;96.70;;;;;;5037532;28;20127;-80
2022/04/19 05:48:16;;;;;;;5.03;2.22;;;11.10;96.70;;;;;;5016909;28;20053;-81
2022/04/19 05:50:45;;;;;;;3.78;2.10;;;11.20;96.70;;;;;;5016732;28;20050;-81
2022/04/19 05:53:13;;;;;;;4.18;2.05;;;11.30;96.70;;;;;;5015565;28;20415;-81
2022/04/19 05:55:44;;;;;;;5.28;2.25;;;11.30;96.70;;;;;;5036453;28;20052;-81
2022/04/19 05:58:13;;;;;;;3.40;2.38;;;11.20;96.70;;;;;;5002688;28;20061;-82
2022/04/19 06:00:41;;;;;;;4.13;2.20;;;11.10;96.70;;;;;;5013144;28;20487;-80
2022/04/19 06:05:55;;;;;;;3.60;2.23;;;11.40;96.70;;;;;;5007733;28;20046;-80
2022/04/19 06:08:24;;;;;;;3.25;2.63;;;11.50;96.70;;;;;;5016820;28;20357;-80
2022/04/19 06:11:05;;;;;;;5.63;2.90;;;11.40;96.70;;;;;;5006651;28;20449;-80
2022/04/19 06:13:33;;;;;;;4.95;2.95;;;11.50;96.70;;;;;;5018513;28;20080;-80
2022/04/19 06:16:04;;;;;;;2.80;2.10;;;11.70;96.70;;;;;;5021481;28;20065;-80
2022/04/19 06:18:36;;;;;;;5.60;2.90;;;11.80;96.70;;;;;;4997933;28;20061;-80
2022/04/19 06:21:30;;;;;;;4.95;3.42;;;11.90;96.70;;;;;;5004962;28;20203;-82
2022/04/19 06:23:59;;;;;;;5.80;3.15;;;11.90;96.70;;;;;;5016829;28;20541;-81
2022/04/19 06:26:28;;;;;;;5.57;3.53;;;11.80;96.70;;;;;;5020257;28;20041;-80
2022/04/19 06:29:01;;;;;;;4.60;3.10;;;11.90;96.70;;;;;;5020804;28;20043;-80
2022/04/19 06:31:43;;;;;;;4.45;3.45;;;11.90;96.70;;;;;;5010971;28;20403;-80
2022/04/19 06:34:28;;;;;;;3.90;3.08;;;11.80;96.70;;;;;;5009850;28;20524;-81
2022/04/19 06:37:16;;;;;;;5.15;3.45;;;11.70;96.70;;;;;;5035326;28;20053;-80
2022/04/19 06:39:50;;;;;;;5.65;3.10;;;11.80;96.70;;;;;;4991427;28;20084;-80
2022/04/19 06:42:20;;;;;;;9.23;3.30;;;11.90;96.70;;;;;;5015347;28;20152;-80
2022/04/19 06:45:10;;;;;;;8.35;3.25;;;11.90;96.70;;;;;;5004621;28;20519;-80
2022/04/19 06:47:40;;;;;;;4.15;3.33;;;12.00;96.70;;;;;;5011414;28;20050;-81
2022/04/19 06:50:09;;;;;;;5.70;3.00;;;11.90;96.70;;;;;;5011477;28;20144;-80
2022/04/19 06:52:40;;;;;;;8.05;3.40;;;11.90;96.70;;;;;;4997124;28;20077;-80
2022/04/19 06:55:29;;;;;;;4.95;3.47;;;12.00;96.70;;;;;;5034474;28;20431;-87
2022/04/19 06:57:58;;;;;;;3.78;2.80;;;12.20;96.70;;;;;;5015228;28;20065;-85
2022/04/19 07:00:27;;;;;;;4.28;3.25;;;12.20;96.70;;;;;;5012516;28;20100;-83
2022/04/19 07:02:55;;;;;;;4.72;3.13;;;12.20;96.70;;;;;;5019802;28;20068;-85
2022/04/19 07:05:42;;;;;;;3.50;2.75;;;12.30;96.70;;;;;;5012417;28;20112;-85
2022/04/19 07:08:10;;;;;;;5.40;2.75;;;12.30;96.70;;;;;;5006056;28;20054;-83
2022/04/19 07:10:40;;;;;;;4.00;3.15;;;12.30;96.70;;;;;;5017697;28;20045;-81
2022/04/19 07:13:47;;;;;;;4.07;3.22;;;12.40;96.70;;;;;;4960161;28;20146;-81
2022/04/19 07:16:38;;;;;;;5.15;3.22;;;12.50;96.70;;;;;;4955651;28;20066;-85
2022/04/19 07:19:06;;;;;;;6.00;2.85;;;12.60;96.70;;;;;;4995572;28;20134;-84
2022/04/19 07:27:37;;;;;;;4.70;3.45;;;12.90;96.70;;;;;;5037595;28;20050;-82
2022/04/19 07:30:09;;;;;;;5.75;3.20;;;12.90;96.70;;;;;;5015298;28;20050;-82
2022/04/19 07:32:37;;;;;;;5.22;2.97;;;12.90;96.70;;;;;;5004398;28;20053;-81
2022/04/19 07:35:24;;;;;;;4.57;3.03;;;12.90;96.70;;;;;;5013000;28;20041;-83
2022/04/19 07:37:53;;;;;;;5.53;3.40;;;13.10;96.70;;;;;;5012390;28;20038;-83
2022/04/19 07:40:26;;;;;;;4.18;2.70;;;13.10;96.70;;;;;;5018017;28;20050;-83
2022/04/19 07:42:54;;;;;;;3.00;2.40;;;13.20;96.70;;;;;;5016161;28;20402;-85
2022/04/19 07:45:24;;;;;;;4.47;2.53;;;13.20;96.70;;;;;;5041127;28;20053;-83
2022/04/19 07:47:52;;;;;;;4.72;2.28;;;13.30;96.70;;;;;;5022576;28;20065;-84
2022/04/19 07:50:21;;;;;;;3.25;1.98;;;13.30;96.70;;;;;;5024009;28;20060;-82
2022/04/19 07:52:49;;;;;;;3.78;2.10;;;13.40;96.70;;;;;;5021176;28;20095;-85
2022/04/19 07:55:18;;;;;;;5.03;2.53;;;13.50;96.70;;;;;;5007647;28;20077;-85
2022/04/19 07:57:46;;;;;;;5.68;2.50;;;13.60;96.70;;;;;;5002533;28;20045;-85
2022/04/19 08:00:17;;;;;;;3.65;2.08;;;13.40;96.70;;;;;;5027995;28;20050;-90
2022/04/19 08:02:49;;;;;;;11.75;3.03;;;13.50;96.70;;;;;;5009989;28;20045;-90
2022/04/19 08:05:18;;;;;;;6.95;2.95;;;13.60;96.70;;;;;;5043469;28;20049;-91
2022/04/19 08:07:48;;;;;;;5.18;2.22;;;13.70;96.70;;;;;;5017936;28;20033;-93
2022/04/19 08:10:18;;;;;;;9.10;2.83;;;13.60;96.70;;;;;;5005711;28;20056;-90
2022/04/19 08:12:47;;;;;;;5.47;2.42;;;13.70;96.70;;;;;;5024671;28;20037;-90
2022/04/19 08:15:15;;;;;;;3.15;2.47;;;13.80;96.70;;;;;;5016724;28;20512;-88
2022/04/19 08:17:44;;;;;;;3.58;2.50;;;13.90;96.70;;;;;;5016914;28;20506;-90
2022/04/19 08:20:16;;;;;;;4.45;2.72;;;14.00;96.70;;;;;;5017240;28;20050;-90
2022/04/19 08:22:47;;;;;;;3.78;2.53;;;14.00;96.70;;;;;;5015421;28;20050;-91
2022/04/19 08:25:22;;;;;;;2.80;2.22;;;14.00;96.70;;;;;;5000217;28;20049;-92
2022/04/19 08:27:51;;;;;;;7.72;3.10;;;14.20;96.70;;;;;;5028707;28;20061;-95
2022/04/19 08:30:20;;;;;;;6.82;3.40;;;14.20;96.70;;;;;;5019052;28;20103;-93
2022/04/19 08:32:50;;;;;;;4.30;3.45;;;14.20;96.70;;;;;;5026516;28;20033;-90
2022/04/19 08:35:20;;;;;;;8.85;3.47;;;14.30;96.70;;;;;;5014719;28;20491;-91
2022/04/19 08:37:48;;;;;;;5.22;3.67;;;14.30;96.70;;;;;;4999408;28;20053;-88
2022/04/19 08:40:18;;;;;;;6.18;3.80;;;14.40;96.70;;;;;;5008221;28;20045;-92
2022/04/19 08:42:51;;;;;;;5.80;3.97;;;14.50;96.70;;;;;;5005304;28;20158;-89
2022/04/19 08:45:20;;;;;;;6.25;4.40;;;14.60;96.70;;;;;;5016674;28;20046;-90
2022/04/19 08:47:48;;;;;;;6.03;3.33;;;14.70;96.70;;;;;;5005139;28;20499;-91
2022/04/19 08:50:20;;;;;;;4.55;3.90;;;14.80;96.70;;;;;;4998063;28;20448;-91
2022/04/19 08:57:29;;;;;;;5.63;3.25;;;14.90;96.70;;;;;;5021187;28;20069;-92
2022/04/19 08:58:23;;;;;;;5.75;3.53;;;15.10;96.70;;;;;;5016535;28;20133;-89
2022/04/19 09:00:51;;;;;;;5.88;3.40;;;15.10;96.70;;;;;;4995890;28;20533;-92
2022/04/19 09:03:20;;;;;;;4.65;3.33;;;15.20;96.70;;;;;;4998770;28;20123;-91
2022/04/19 09:05:52;;;;;;;7.88;3.13;;;15.30;96.70;;;;;;5017881;28;20056;-92
2022/04/19 09:08:21;;;;;;;5.63;2.90;;;15.30;96.70;;;;;;5021220;28;20561;-86
2022/04/19 09:10:50;;;;;;;4.78;2.55;;;15.40;96.70;;;;;;5003081;28;20128;-89
2022/04/19 09:13:22;;;;;;;6.75;3.40;;;15.50;96.70;;;;;;5013632;28;20404;-89
2022/04/19 09:15:54;;;;;;;9.55;2.88;;;15.60;96.70;;;;;;5025179;28;20045;-90
2022/04/19 09:18:29;;;;;;;6.07;3.13;;;15.60;96.70;;;;;;5026449;28;20145;-91
2022/04/19 09:21:01;;;;;;;7.88;2.80;;;15.80;96.70;;;;;;5022687;28;20065;-89
2022/04/19 09:23:32;;;;;;;6.70;3.10;;;15.90;96.70;;;;;;5006664;28;20513;-89
2022/04/19 09:26:01;;;;;;;5.32;3.17;;;16.00;96.70;;;;;;5039858;28;20711;-84
2022/04/19 09:28:31;;;;;;;4.53;2.25;;;16.10;96.70;;;;;;5038510;28;20057;-87
2022/04/19 09:31:00;;;;;;;2.35;2.00;;;16.20;96.70;;;;;;5025192;28;20076;-86
2022/04/19 09:33:30;;;;;;;5.35;1.63;;;16.40;96.70;;;;;;5010284;28;20056;-87
2022/04/19 09:36:05;;;;;;;5.15;1.48;;;16.50;96.70;;;;;;5021748;28;20103;-87
2022/04/19 09:38:40;;;;;;;3.40;1.13;;;16.60;96.70;;;;;;5013211;28;20045;-88
2022/04/19 09:41:09;;;;;;;5.55;1.63;;;16.80;96.70;;;;;;5023870;28;20155;-86
2022/04/19 09:44:07;;;;;;;4.90;1.50;;;16.80;96.70;;;;;;5020376;28;20053;-87
2022/04/19 09:46:36;;;;;;;2.83;1.50;;;16.90;96.70;;;;;;5020198;28;20847;-87
2022/04/19 09:49:05;;;;;;;1.88;1.40;;;17.00;96.70;;;;;;4999115;28;20041;-86
2022/04/19 09:51:38;;;;;;;4.45;1.67;;;17.00;96.70;;;;;;5023171;28;20076;-85
2022/04/19 09:54:21;;;;;;;4.65;1.30;;;17.10;96.70;;;;;;5021391;28;20045;-87
2022/04/19 09:56:50;;;;;;;2.85;1.30;;;17.20;96.70;;;;;;5013616;28;20046;-86
2022/04/19 09:59:20;;;;;;;3.45;1.10;;;17.20;96.70;;;;;;5019446;28;20045;-87
2022/04/19 10:10:13;;;;;;;6.40;1.65;;;17.60;96.00;;;;;;5045045;28;20054;-86
2022/04/19 10:12:44;;;;;;;1.90;1.25;;;17.70;96.30;;;;;;5023542;28;20458;-86
2022/04/19 10:15:13;;;;;;;3.40;1.08;;;17.70;96.20;;;;;;5041683;28;20077;-87
2022/04/19 10:17:41;;;;;;;5.10;1.10;;;17.70;96.40;;;;;;5023251;28;20061;-87
2022/04/19 10:20:11;;;;;;;3.03;1.33;;;17.80;93.50;;;;;;5024000;28;20038;-86
2022/04/19 10:22:47;;;;;;;3.83;0.90;;;18.00;93.20;;;;;;5003477;28;20072;-87
2022/04/19 10:25:15;;;;;;;2.90;1.40;;;18.10;92.30;;;;;;5029542;28;20045;-86
2022/04/19 10:27:44;;;;;;;3.45;1.00;;;18.30;94.20;;;;;;5014052;28;20042;-86
2022/04/19 10:30:46;;;;;;;4.90;1.23;;;18.20;90.80;;;;;;5026546;28;20066;-85
2022/04/19 10:33:44;;;;;;;2.83;1.00;;;18.20;92.60;;;;;;4999712;28;20052;-85
2022/04/19 10:36:14;;;;;;;4.40;1.20;;;18.30;92.50;;;;;;5025949;28;20128;-85
2022/04/19 10:38:46;;;;;;;3.80;1.35;;;18.50;91.70;;;;;;5003131;28;20164;-86
2022/04/19 10:41:49;;;;;;;2.55;0.80;;;18.50;92.80;;;;;;5018305;28;20083;-87
2022/04/19 10:44:28;;;;;;;6.55;1.50;;;18.60;91.80;;;;;;4942856;28;20059;-86
2022/04/19 10:47:14;;;;;;;2.45;1.08;;;18.80;93.00;;;;;;4962204;28;20038;-86
2022/04/19 10:49:59;;;;;;;2.17;0.90;;;18.70;93.10;;;;;;4951479;28;20047;-86
2022/04/19 10:52:49;;;;;;;1.52;1.02;;;18.80;93.40;;;;;;4948780;28;20043;-86
2022/04/19 10:55:33;;;;;;;4.82;1.55;;;19.00;93.20;;;;;;4947472;28;20050;-86
2022/04/19 10:58:43;;;;;;;2.15;0.90;;;19.30;91.90;;;;;;4955622;28;20074;-85
2022/04/19 11:01:32;;;;;;;3.22;1.40;;;19.60;92.60;;;;;;4958945;28;20094;-86
2022/04/19 11:04:01;;;;;;;4.13;1.00;;;19.60;92.40;;;;;;4966278;28;20120;-86
2022/04/19 11:06:31;;;;;;;2.85;0.93;;;19.60;91.50;;;;;;4962351;28;20047;-87
2022/04/19 11:09:13;;;;;;;2.97;0.88;;;19.70;88.50;;;;;;4955466;28;20056;-87
2022/04/19 11:11:48;;;;;;;3.22;0.90;;;19.80;87.90;;;;;;4945266;28;20247;-87
2022/04/19 11:14:21;;;;;;;1.50;0.85;;;19.90;88.20;;;;;;4932063;28;20050;-87
2022/04/19 11:16:51;;;;;;;2.25;0.95;;;19.70;87.50;;;;;;5014263;28;20133;-87
2022/04/19 11:19:22;;;;;;;1.35;0.80;;;19.60;88.10;;;;;;5010522;28;20093;-87
2022/04/19 11:21:54;;;;;;;2.65;1.15;;;19.50;89.10;;;;;;5010657;28;20080;-87
2022/04/19 11:25:00;;;;;;;3.03;0.85;;;19.40;89.10;;;;;;5026616;28;20095;-86
2022/04/19 11:28:08;;;;;;;3.60;1.17;;;19.50;88.50;;;;;;5043615;28;20163;-86
2022/04/19 11:30:43;;;;;;;2.55;0.63;;;19.50;87.40;;;;;;5023760;28;20045;-86
2022/04/19 11:33:28;;;;;;;1.63;0.68;;;19.50;85.10;;;;;;5002249;28;20050;-86
2022/04/19 11:36:00;;;;;;;1.95;0.80;;;19.40;86.10;;;;;;4993246;28;20057;-85
2022/04/19 11:38:29;;;;;;;2.25;0.70;;;19.40;85.90;;;;;;4999661;28;20052;-86
2022/04/19 11:46:44;;;;;;;2.35;1.02;;;19.20;87.80;;;;;;5016476;28;20367;-86
2022/04/19 11:49:26;;;;;;;2.33;0.70;;;19.40;88.50;;;;;;5012424;28;20120;-86
2022/04/19 11:51:56;;;;;;;2.88;0.85;;;19.50;90.80;;;;;;5020244;28;20049;-87
2022/04/19 11:54:25;;;;;;;2.72;1.02;;;19.80;91.40;;;;;;5022217;28;20049;-86
2022/04/19 11:56:55;;;;;;;2.80;0.88;;;20.00;91.30;;;;;;4998597;28;20060;-87
2022/04/19 11:59:29;;;;;;;3.65;0.90;;;20.00;92.50;;;;;;5026872;28;20120;-87
2022/04/19 12:02:00;;;;;;;2.05;0.93;;;19.70;93.40;;;;;;5018448;28;20052;-86
2022/04/19 12:04:28;;;;;;;3.88;0.85;;;19.50;93.00;;;;;;5022291;28;20072;-86
2022/04/19 12:06:58;;;;;;;3.13;1.00;;;19.10;94.20;;;;;;5017037;28;20049;-87
2022/04/19 12:09:28;;;;;;;3.05;0.63;;;19.10;95.90;;;;;;5012076;28;20041;-86
2022/04/19 12:12:03;;;;;;;3.97;0.90;;;19.10;91.90;;;;;;5013202;28;20046;-86
2022/04/19 12:14:32;;;;;;;1.60;0.70;;;19.20;91.20;;;;;;5016950;28;20285;-87
2022/04/19 12:17:24;;;;;;;2.03;0.90;;;19.30;87.80;;;;;;5000096;28;20050;-86
2022/04/19 12:20:01;;;;;;;1.70;0.80;;;19.40;91.40;;;;;;5023982;28;20065;-86
2022/04/19 12:22:33;;;;;;;2.10;0.93;;;19.60;88.40;;;;;;5018131;28;20052;-85
2022/04/19 12:25:03;;;;;;;3.35;0.75;;;19.50;91.50;;;;;;5007317;28;20462;-85
2022/04/19 12:27:34;;;;;;;1.80;0.60;;;19.40;92.10;;;;;;5015413;28;20053;-86
2022/04/19 12:30:08;;;;;;;3.22;0.88;;;19.50;85.80;;;;;;5009075;28;20072;-86
2022/04/19 12:32:53;;;;;;;1.20;0.70;;;19.60;89.30;;;;;;5038417;28;20100;-86
2022/04/19 12:35:25;;;;;;;3.38;1.30;;;19.80;87.60;;;;;;5015483;28;20046;-86
2022/04/19 12:38:07;;;;;;;3.63;1.15;;;20.00;89.30;;;;;;5033750;28;20080;-85
2022/04/19 12:40:36;;;;;;;3.65;0.50;;;20.00;90.70;;;;;;5005919;28;20048;-85
2022/04/19 12:43:04;;;;;;;1.52;0.80;;;20.10;91.30;;;;;;5015177;28;20038;-85
2022/04/19 12:45:37;;;;;;;4.60;0.90;;;20.10;91.60;;;;;;5012569;28;20045;-86
2022/04/19 12:48:17;;;;;;;3.60;0.90;;;20.10;92.20;;;;;;5014708;28;20050;-86
2022/04/19 12:50:45;;;;;;;2.10;0.63;;;20.20;90.30;;;;;;5008553;28;20070;-86
2022/04/19 12:53:23;;;;;;;2.38;1.00;;;20.00;89.10;;;;;;5015223;28;20038;-86
2022/04/19 12:55:52;;;;;;;1.73;0.70;;;20.10;88.80;;;;;;5017967;28;20104;-86
2022/04/19 12:58:20;;;;;;;2.80;0.75;;;20.20;88.20;;;;;;5016265;28;20056;-85
2022/04/19 13:00:48;;;;;;;2.55;0.70;;;20.20;87.20;;;;;;5023568;28;20037;-84
2022/04/19 13:03:18;;;;;;;3.35;0.70;;;20.40;87.50;;;;;;5017916;28;20072;-85
2022/04/19 13:14:06;;;;;;;2.08;0.85;;;20.60;90.60;;;;;;5029219;28;20041;-85
2022/04/19 13:16:34;;;;;;;1.23;0.60;;;20.40;87.80;;;;;;5028028;28;20046;-85
2022/04/19 13:19:04;;;;;;;3.00;1.20;;;20.40;87.00;;;;;;5020128;28;20074;-85
2022/04/19 13:21:32;;;;;;;2.13;0.90;;;20.50;87.00;;;;;;5023725;28;20072;-85
2022/04/19 13:24:06;;;;;;;2.63;1.00;;;20.50;87.40;;;;;;5019143;28;20054;-85
2022/04/19 13:26:35;;;;;;;1.95;0.52;;;20.40;86.80;;;;;;5031262;28;20052;-85
2022/04/19 13:29:08;;;;;;;3.70;1.20;;;20.60;85.90;;;;;;5018031;28;20152;-84
2022/04/19 13:31:36;;;;;;;1.48;0.60;;;20.70;84.10;;;;;;4992299;28;20056;-84
2022/04/19 13:34:06;;;;;;;4.28;1.08;;;20.80;83.30;;;;;;5022090;28;20049;-84
2022/04/19 13:36:34;;;;;;;3.13;0.98;;;21.00;85.50;;;;;;4996318;28;20502;-85
2022/04/19 13:39:02;;;;;;;4.78;0.98;;;20.90;86.10;;;;;;5036779;28;20053;-83
2022/04/19 13:41:30;;;;;;;4.63;1.00;;;20.90;85.70;;;;;;5002344;28;20084;-84
2022/04/19 13:43:58;;;;;;;2.03;0.70;;;21.10;83.10;;;;;;5024976;28;20491;-84
2022/04/19 13:46:27;;;;;;;2.10;0.82;;;21.30;84.00;;;;;;5017622;28;20438;-84
2022/04/19 13:48:55;;;;;;;2.78;1.15;;;21.30;82.80;;;;;;5030046;28;20046;-86
2022/04/19 13:51:28;;;;;;;1.92;0.57;;;21.40;83.80;;;;;;5010601;28;20056;-85
2022/04/19 13:53:56;;;;;;;2.60;0.95;;;21.30;82.80;;;;;;4999125;28;20038;-83
2022/04/19 13:56:25;;;;;;;5.75;1.00;;;21.30;83.70;;;;;;5017310;28;20107;-83
2022/04/19 13:58:55;;;;;;;3.55;0.80;;;21.40;83.10;;;;;;5013989;28;20085;-86